createdAt,value
2023-05-20T00:02:22.856Z,30.20
2023-05-20T00:04:50.638Z,30.60
2023-05-20T00:07:18.263Z,29.90
2023-05-20T00:09:46.237Z,29.80
2023-05-20T00:12:13.803Z,29.83
2023-05-20T00:14:41.128Z,30.40
2023-05-20T00:17:08.707Z,31.38
2023-05-20T00:19:36.050Z,30.52
2023-05-20T00:22:03.698Z,34.90
2023-05-20T00:24:31.147Z,31.83
2023-05-20T00:26:58.737Z,32.20
2023-05-20T00:29:26.015Z,29.17
2023-05-20T00:31:53.715Z,33.63
2023-05-20T00:34:21.271Z,31.77
2023-05-20T00:36:48.827Z,38.42
2023-05-20T00:39:16.178Z,29.67
2023-05-20T00:41:43.706Z,35.50
2023-05-20T00:44:10.969Z,39.95
2023-05-20T00:46:39.215Z,30.55
2023-05-20T00:49:06.893Z,35.30
2023-05-20T00:51:34.760Z,35.47
2023-05-20T00:54:02.446Z,38.05
2023-05-20T00:56:30.444Z,35.63
2023-05-20T00:58:58.719Z,33.22
2023-05-20T01:01:26.614Z,32.60
2023-05-20T01:03:54.191Z,31.00
2023-05-20T01:06:21.866Z,29.65
2023-05-20T01:08:49.294Z,29.38
2023-05-20T01:11:31.712Z,30.20
2023-05-20T01:14:07.862Z,30.80
2023-05-20T01:16:38.878Z,29.45
2023-05-20T01:19:38.591Z,25.90
2023-05-20T01:22:12.562Z,31.02
2023-05-20T01:24:53.641Z,30.10
2023-05-20T01:27:23.674Z,31.38
2023-05-20T01:29:53.026Z,34.78
2023-05-20T01:32:37.551Z,30.25
2023-05-20T01:35:07.441Z,32.67
2023-05-20T01:37:41.467Z,28.83
2023-05-20T01:40:11.826Z,31.65
2023-05-20T01:42:41.793Z,32.50
2023-05-20T01:45:09.776Z,32.70
2023-05-20T01:47:37.491Z,34.00
2023-05-20T01:50:05.426Z,34.22
2023-05-20T01:52:33.905Z,35.90
2023-05-20T01:55:01.689Z,39.42
2023-05-20T01:57:29.386Z,35.33
2023-05-20T01:59:56.679Z,34.78
2023-05-20T02:02:24.364Z,38.67
2023-05-20T02:04:54.460Z,34.45
2023-05-20T02:07:22.172Z,35.78
2023-05-20T02:09:49.471Z,37.63
2023-05-20T02:12:17.312Z,36.70
2023-05-20T02:14:46.529Z,36.47
2023-05-20T02:17:16.613Z,41.03
2023-05-20T02:19:46.009Z,36.95
2023-05-20T02:22:15.022Z,37.65
2023-05-20T02:24:43.631Z,36.53
2023-05-20T02:27:11.410Z,39.53
2023-05-20T02:29:38.842Z,35.80
2023-05-20T02:32:06.966Z,36.20
2023-05-20T02:34:34.338Z,35.65
2023-05-20T02:37:01.907Z,35.45
2023-05-20T02:39:29.186Z,40.13
2023-05-20T02:41:57.118Z,36.08
2023-05-20T02:44:24.562Z,34.72
2023-05-20T02:46:52.448Z,30.55
2023-05-20T02:49:19.832Z,29.20
2023-05-20T02:51:47.455Z,29.15
2023-05-20T02:54:14.769Z,25.63
2023-05-20T02:56:42.496Z,29.42
2023-05-20T02:59:09.829Z,25.33
2023-05-20T03:01:37.478Z,27.30
2023-05-20T03:04:04.957Z,28.40
2023-05-20T03:06:32.659Z,24.35
2023-05-20T03:08:59.972Z,24.00
2023-05-20T03:11:27.622Z,21.80
2023-05-20T03:13:54.985Z,20.85
2023-05-20T03:16:23.209Z,21.30
2023-05-20T03:18:50.830Z,19.17
2023-05-20T03:21:18.503Z,19.85
2023-05-20T03:23:45.779Z,16.33
2023-05-20T03:26:13.499Z,18.33
2023-05-20T03:28:40.877Z,16.08
2023-05-20T03:31:08.470Z,14.48
2023-05-20T03:33:36.150Z,14.57
2023-05-20T03:36:03.962Z,16.10
2023-05-20T03:38:31.275Z,15.27
2023-05-20T03:40:58.827Z,14.55
2023-05-20T03:43:27.277Z,14.85
2023-05-20T03:45:54.920Z,14.05
2023-05-20T03:48:22.327Z,12.23
2023-05-20T03:50:50.226Z,13.70
2023-05-20T03:53:17.750Z,13.15
2023-05-20T03:55:45.571Z,11.68
2023-05-20T03:58:13.803Z,10.95
2023-05-20T04:00:42.191Z,11.00
2023-05-20T04:03:10.561Z,11.85
2023-05-20T04:05:38.554Z,11.15
2023-05-20T04:08:06.104Z,10.40
2023-05-20T04:10:33.902Z,10.07
2023-05-20T04:13:01.509Z,10.10
2023-05-20T04:15:29.920Z,10.90
2023-05-20T04:17:57.385Z,9.57
2023-05-20T04:20:25.087Z,10.85
2023-05-20T04:22:52.574Z,10.50
2023-05-20T04:25:20.706Z,11.82
2023-05-20T04:27:48.451Z,10.77
2023-05-20T04:30:19.982Z,11.07
2023-05-20T04:32:48.390Z,11.05
2023-05-20T04:35:16.406Z,9.90
2023-05-20T04:37:47.809Z,9.55
2023-05-20T04:40:15.815Z,11.02
2023-05-20T04:42:44.969Z,10.43
2023-05-20T04:45:13.779Z,10.27
2023-05-20T04:47:42.029Z,9.68
2023-05-20T04:50:11.380Z,12.20
2023-05-20T04:52:39.515Z,11.02
2023-05-20T04:55:12.166Z,10.32
2023-05-20T04:57:42.955Z,12.43
2023-05-20T05:00:12.693Z,12.50
2023-05-20T05:02:40.412Z,10.15
2023-05-20T05:05:08.902Z,12.98
2023-05-20T05:07:36.699Z,12.45
2023-05-20T05:10:05.331Z,12.23
2023-05-20T05:12:32.718Z,13.23
2023-05-20T05:15:00.758Z,13.25
2023-05-20T05:17:29.037Z,15.05
2023-05-20T05:19:56.901Z,12.02
2023-05-20T05:22:24.300Z,13.77
2023-05-20T05:24:52.427Z,13.02
2023-05-20T05:27:19.767Z,12.70
2023-05-20T05:29:47.335Z,11.57
2023-05-20T05:32:14.676Z,13.35
2023-05-20T05:34:42.340Z,12.27
2023-05-20T05:37:09.734Z,13.77
2023-05-20T05:39:37.918Z,12.43
2023-05-20T05:42:06.074Z,13.43
2023-05-20T05:44:33.765Z,13.90
2023-05-20T05:47:01.167Z,12.77
2023-05-20T05:49:28.778Z,11.35
2023-05-20T05:51:56.116Z,11.07
2023-05-20T05:54:23.750Z,10.70
2023-05-20T05:56:54.611Z,13.13
2023-05-20T05:59:22.874Z,12.23
2023-05-20T06:01:50.333Z,25.90
2023-05-20T06:04:18.105Z,33.35
2023-05-20T06:06:45.447Z,18.05
2023-05-20T06:09:13.132Z,9.65
2023-05-20T06:11:42.378Z,10.43
2023-05-20T06:14:10.019Z,10.93
2023-05-20T06:16:37.483Z,10.02
2023-05-20T06:19:05.789Z,9.70
2023-05-20T06:21:33.364Z,11.85
2023-05-20T06:24:00.968Z,10.40
2023-05-20T06:26:28.322Z,10.27
2023-05-20T06:28:56.084Z,11.52
2023-05-20T06:31:23.659Z,11.60
2023-05-20T06:33:51.501Z,11.23
2023-05-20T06:36:18.804Z,11.43
2023-05-20T06:38:46.411Z,10.30
2023-05-20T06:41:13.772Z,10.43
2023-05-20T06:43:41.423Z,9.95
2023-05-20T06:46:08.751Z,11.40
2023-05-20T06:48:36.348Z,15.43
2023-05-20T06:51:04.325Z,11.70
2023-05-20T06:53:31.865Z,11.45
2023-05-20T06:55:59.129Z,13.18
2023-05-20T06:58:26.762Z,10.95
2023-05-20T07:00:54.183Z,13.43
2023-05-20T07:03:21.764Z,11.55
2023-05-20T07:05:51.051Z,10.45
2023-05-20T07:08:18.648Z,13.90
2023-05-20T07:10:46.833Z,12.40
2023-05-20T07:13:14.480Z,12.25
2023-05-20T07:15:41.860Z,10.63
2023-05-20T07:18:09.463Z,11.43
2023-05-20T07:20:36.784Z,11.77
2023-05-20T07:23:04.350Z,13.05
2023-05-20T07:25:31.725Z,11.75
2023-05-20T07:28:00.717Z,10.63
2023-05-20T07:30:28.189Z,22.08
2023-05-20T07:32:55.869Z,12.20
2023-05-20T07:35:24.632Z,11.75
2023-05-20T07:37:52.396Z,10.65
2023-05-20T07:40:19.771Z,12.43
2023-05-20T07:42:47.316Z,12.02
2023-05-20T07:45:14.595Z,12.50
2023-05-20T07:47:43.632Z,11.27
2023-05-20T07:50:11.522Z,11.25
2023-05-20T07:52:54.666Z,12.68
2023-05-20T07:55:24.110Z,11.82
2023-05-20T07:57:52.094Z,11.93
2023-05-20T08:00:19.662Z,13.15
2023-05-20T08:02:47.528Z,12.18
2023-05-20T08:05:15.048Z,12.52
2023-05-20T08:07:42.616Z,11.60
2023-05-20T08:10:10.518Z,12.10
2023-05-20T08:12:38.350Z,13.80
2023-05-20T08:15:06.676Z,12.35
2023-05-20T08:17:35.266Z,13.02
2023-05-20T08:20:02.725Z,13.63
2023-05-20T08:22:30.426Z,14.70
2023-05-20T08:24:57.755Z,13.63
2023-05-20T08:27:25.523Z,12.45
2023-05-20T08:29:52.829Z,11.45
2023-05-20T08:32:20.446Z,13.82
2023-05-20T08:34:49.406Z,14.60
2023-05-20T08:37:17.167Z,13.93
2023-05-20T08:39:46.723Z,15.45
2023-05-20T08:42:14.468Z,16.45
2023-05-20T08:44:42.751Z,11.95
2023-05-20T08:47:11.457Z,13.73
2023-05-20T08:49:39.429Z,15.80
2023-05-20T08:52:09.970Z,16.85
2023-05-20T08:54:46.575Z,15.10
2023-05-20T08:57:14.407Z,15.57
2023-05-20T08:59:47.193Z,14.18
2023-05-20T09:02:16.072Z,13.50
2023-05-20T09:04:43.631Z,13.20
2023-05-20T09:07:11.273Z,18.88
2023-05-20T09:09:38.609Z,20.27
2023-05-20T09:12:06.868Z,15.48
2023-05-20T09:14:34.333Z,14.55
2023-05-20T09:17:08.497Z,17.10
2023-05-20T09:19:36.896Z,14.43
2023-05-20T09:22:05.437Z,14.30
2023-05-20T09:24:33.027Z,14.93
2023-05-20T09:27:01.106Z,17.52
2023-05-20T09:29:28.454Z,35.38
2023-05-20T09:31:57.030Z,18.38
2023-05-20T09:34:24.430Z,16.15
2023-05-20T09:36:54.006Z,20.30
2023-05-20T09:39:34.058Z,14.68
2023-05-20T09:42:10.881Z,14.68
2023-05-20T09:44:39.371Z,15.57
2023-05-20T09:47:08.762Z,15.43
2023-05-20T09:49:38.164Z,15.75
2023-05-20T09:52:06.312Z,14.10
2023-05-20T09:54:36.533Z,14.32
2023-05-20T09:57:08.321Z,14.00
2023-05-20T09:59:38.640Z,14.82
2023-05-20T10:02:07.322Z,13.57
2023-05-20T10:04:45.002Z,17.30
2023-05-20T10:07:20.904Z,16.95
2023-05-20T10:10:45.400Z,14.38
2023-05-20T10:13:28.391Z,15.20
2023-05-20T10:16:42.862Z,16.17
2023-05-20T10:19:31.302Z,15.18
2023-05-20T10:22:04.436Z,14.55
2023-05-20T10:24:38.304Z,13.88
2023-05-20T10:27:15.842Z,10.60
2023-05-20T10:29:59.938Z,10.90
2023-05-20T10:32:33.312Z,10.48
2023-05-20T10:35:10.214Z,10.40
2023-05-20T10:37:51.116Z,9.82
2023-05-20T10:40:23.327Z,11.10
2023-05-20T10:42:51.071Z,12.18
2023-05-20T10:45:32.894Z,11.43
2023-05-20T10:48:00.501Z,10.48
2023-05-20T10:50:36.681Z,12.23
2023-05-20T10:53:09.394Z,13.48
2023-05-20T10:55:47.689Z,15.00
2023-05-20T10:58:15.415Z,12.38
2023-05-20T11:00:44.183Z,16.27
2023-05-20T11:03:14.858Z,14.73
2023-05-20T11:05:42.927Z,13.30
2023-05-20T11:08:20.639Z,12.82
2023-05-20T11:10:58.167Z,13.35
2023-05-20T11:13:26.409Z,15.95
2023-05-20T11:15:55.624Z,15.43
2023-05-20T11:18:23.023Z,15.80
2023-05-20T11:20:51.306Z,19.38
2023-05-20T11:23:19.376Z,17.25
2023-05-20T11:25:47.049Z,15.30
2023-05-20T11:28:14.854Z,26.13
2023-05-20T11:30:46.176Z,18.98
2023-05-20T11:33:16.972Z,19.20
2023-05-20T11:35:54.475Z,19.20
2023-05-20T11:38:22.407Z,17.23
2023-05-20T11:40:55.819Z,20.65
2023-05-20T11:43:24.602Z,21.23
2023-05-20T11:46:00.030Z,20.55
2023-05-20T11:48:27.737Z,19.83
2023-05-20T11:50:57.115Z,22.10
2023-05-20T11:53:25.435Z,20.63
2023-05-20T11:55:56.417Z,21.35
2023-05-20T11:58:26.861Z,20.85
2023-05-20T12:01:01.752Z,20.75
2023-05-20T12:03:37.562Z,18.05
2023-05-20T12:06:05.583Z,22.40
2023-05-20T12:08:32.935Z,19.05
2023-05-20T12:11:00.598Z,21.00
2023-05-20T12:13:27.989Z,18.63
2023-05-20T12:15:55.762Z,22.58
2023-05-20T12:18:23.238Z,23.48
2023-05-20T12:20:51.067Z,19.15
2023-05-20T12:23:18.430Z,17.40
2023-05-20T12:25:47.443Z,18.85
2023-05-20T12:28:14.822Z,22.10
2023-05-20T12:30:42.790Z,20.63
2023-05-20T12:33:10.563Z,20.98
2023-05-20T12:35:43.748Z,19.52
2023-05-20T12:38:29.728Z,19.20
2023-05-20T12:40:57.454Z,21.35
2023-05-20T12:43:24.785Z,19.17
2023-05-20T12:45:52.996Z,20.10
2023-05-20T12:48:20.646Z,19.83
2023-05-20T12:50:49.835Z,19.60
2023-05-20T12:53:17.175Z,20.98
2023-05-20T12:55:44.927Z,20.52
2023-05-20T12:58:12.310Z,16.80
2023-05-20T13:00:40.079Z,20.25
2023-05-20T13:03:07.707Z,19.05
2023-05-20T13:05:35.445Z,16.83
2023-05-20T13:08:04.491Z,19.45
2023-05-20T13:10:33.275Z,18.23
2023-05-20T13:13:00.780Z,17.02
2023-05-20T13:15:28.435Z,21.38
2023-05-20T13:17:56.099Z,17.67
2023-05-20T13:20:25.111Z,16.73
2023-05-20T13:22:52.857Z,17.88
2023-05-20T13:25:20.674Z,19.42
2023-05-20T13:27:48.020Z,17.42
2023-05-20T13:30:15.693Z,21.45
2023-05-20T13:32:43.065Z,17.10
2023-05-20T13:35:10.974Z,17.55
2023-05-20T13:37:38.261Z,19.23
2023-05-20T13:40:06.839Z,18.70
2023-05-20T13:42:34.202Z,17.05
2023-05-20T13:45:01.893Z,22.70
2023-05-20T13:47:29.315Z,18.23
2023-05-20T13:49:56.972Z,18.38
2023-05-20T13:52:24.255Z,17.40
2023-05-20T13:54:52.008Z,16.42
2023-05-20T13:57:21.121Z,16.15
2023-05-20T13:59:48.730Z,15.35
2023-05-20T14:02:16.337Z,17.15
2023-05-20T14:04:45.101Z,18.30
2023-05-20T14:07:13.012Z,16.23
2023-05-20T14:09:41.140Z,17.75
2023-05-20T14:12:09.644Z,17.13
2023-05-20T14:14:37.345Z,18.02
2023-05-20T14:17:04.876Z,16.35
2023-05-20T14:19:32.617Z,15.25
2023-05-20T14:22:01.367Z,19.80
2023-05-20T14:24:29.520Z,16.33
2023-05-20T14:26:57.175Z,15.38
2023-05-20T14:29:24.898Z,17.15
2023-05-20T14:31:52.312Z,16.92
2023-05-20T14:34:19.991Z,17.27
2023-05-20T14:36:47.670Z,19.75
2023-05-20T14:39:15.428Z,14.80
2023-05-20T14:41:42.672Z,16.48
2023-05-20T14:44:10.239Z,16.90
2023-05-20T14:46:37.571Z,15.25
2023-05-20T14:49:05.928Z,17.58
2023-05-20T14:51:33.172Z,17.58
2023-05-20T14:54:01.031Z,14.02
2023-05-20T14:56:28.490Z,14.63
2023-05-20T14:58:56.239Z,13.80
2023-05-20T15:01:23.527Z,16.08
2023-05-20T15:03:51.119Z,14.82
2023-05-20T15:06:18.733Z,15.20
2023-05-20T15:08:46.399Z,14.88
2023-05-20T15:11:13.757Z,16.58
2023-05-20T15:13:41.368Z,14.20
2023-05-20T15:16:08.755Z,16.25
2023-05-20T15:18:36.339Z,14.73
2023-05-20T15:21:04.214Z,13.20
2023-05-20T15:23:31.811Z,13.50
2023-05-20T15:25:59.217Z,11.48
2023-05-20T15:28:26.871Z,17.50
2023-05-20T15:30:56.584Z,12.65
2023-05-20T15:33:24.345Z,20.02
2023-05-20T15:35:51.967Z,15.20
2023-05-20T15:38:19.471Z,15.85
2023-05-20T15:40:47.538Z,14.30
2023-05-20T15:43:15.178Z,13.50
2023-05-20T15:45:42.704Z,12.88
2023-05-20T15:48:10.465Z,14.45
2023-05-20T15:50:38.343Z,16.83
2023-05-20T15:53:10.043Z,14.75
2023-05-20T15:55:37.395Z,14.63
2023-05-20T15:58:04.948Z,17.42
2023-05-20T16:00:32.671Z,15.77
2023-05-20T16:03:00.759Z,15.13
2023-05-20T16:05:28.231Z,13.85
2023-05-20T16:07:57.100Z,15.23
2023-05-20T16:10:26.166Z,13.85
2023-05-20T16:12:53.839Z,14.40
2023-05-20T16:15:21.100Z,17.42
2023-05-20T16:17:48.833Z,14.27
2023-05-20T16:20:16.347Z,14.10
2023-05-20T16:22:43.950Z,18.60
2023-05-20T16:25:11.423Z,15.05
2023-05-20T16:27:39.071Z,12.13
2023-05-20T16:30:09.110Z,14.63
2023-05-20T16:32:36.727Z,15.45
2023-05-20T16:35:05.061Z,12.55
2023-05-20T16:37:33.159Z,13.98
2023-05-20T16:40:00.821Z,25.98
2023-05-20T16:42:28.506Z,16.25
2023-05-20T16:44:55.920Z,15.05
2023-05-20T16:47:23.608Z,15.15
2023-05-20T16:49:51.017Z,17.15
2023-05-20T16:52:18.656Z,14.73
2023-05-20T16:54:46.096Z,14.30
2023-05-20T16:57:16.051Z,14.05
2023-05-20T16:59:43.452Z,14.10
2023-05-20T17:02:11.140Z,13.63
2023-05-20T17:04:38.463Z,14.63
2023-05-20T17:07:09.843Z,14.82
2023-05-20T17:09:37.616Z,14.07
2023-05-20T17:12:06.091Z,13.38
2023-05-20T17:14:33.480Z,14.13
2023-05-20T17:17:01.328Z,16.95
2023-05-20T17:19:28.752Z,14.75
2023-05-20T17:21:56.370Z,14.27
2023-05-20T17:24:23.632Z,15.30
2023-05-20T17:26:51.362Z,13.50
2023-05-20T17:29:18.752Z,13.10
2023-05-20T17:31:46.503Z,18.50
2023-05-20T17:34:13.947Z,14.23
2023-05-20T17:36:41.597Z,15.90
2023-05-20T17:39:09.840Z,14.73
2023-05-20T17:41:38.175Z,14.50
2023-05-20T17:44:05.909Z,16.55
2023-05-20T17:46:33.545Z,16.92
2023-05-20T17:49:01.140Z,14.18
2023-05-20T17:51:28.755Z,14.27
2023-05-20T17:53:56.044Z,15.88
2023-05-20T17:56:23.712Z,17.08
2023-05-20T17:58:51.017Z,17.70
2023-05-20T18:01:18.664Z,19.00
2023-05-20T18:03:46.395Z,15.68
2023-05-20T18:06:14.284Z,17.10
2023-05-20T18:08:42.599Z,16.35
2023-05-20T18:11:10.695Z,17.80
2023-05-20T18:13:38.047Z,15.68
2023-05-20T18:16:06.638Z,14.25
2023-05-20T18:18:34.099Z,17.83
2023-05-20T18:21:01.686Z,15.32
2023-05-20T18:23:28.991Z,17.00
2023-05-20T18:25:56.607Z,15.43
2023-05-20T18:28:23.931Z,15.90
2023-05-20T18:30:51.576Z,13.88
2023-05-20T18:33:18.930Z,14.85
2023-05-20T18:35:46.703Z,17.98
2023-05-20T18:38:14.026Z,18.35
2023-05-20T18:40:41.617Z,15.80
2023-05-20T18:43:08.912Z,18.67
2023-05-20T18:45:36.601Z,17.00
2023-05-20T18:48:05.262Z,18.52
2023-05-20T18:50:33.143Z,16.23
2023-05-20T18:53:00.595Z,16.35
2023-05-20T18:55:28.394Z,18.38
2023-05-20T18:57:55.812Z,15.52
2023-05-20T19:00:23.981Z,17.13
2023-05-20T19:02:51.335Z,15.88
2023-05-20T19:05:20.046Z,18.10
2023-05-20T19:07:47.389Z,21.65
2023-05-20T19:10:15.568Z,19.05
2023-05-20T19:12:43.691Z,17.20
2023-05-20T19:15:11.723Z,25.45
2023-05-20T19:17:40.444Z,19.35
2023-05-20T19:20:09.027Z,19.30
2023-05-20T19:22:36.606Z,18.90
2023-05-20T19:25:05.703Z,18.58
2023-05-20T19:27:33.004Z,17.58
2023-05-20T19:30:00.703Z,19.73
2023-05-20T19:32:28.133Z,18.23
2023-05-20T19:34:55.999Z,20.33
2023-05-20T19:37:23.445Z,17.90
2023-05-20T19:39:51.044Z,18.92
2023-05-20T19:42:18.494Z,15.50
2023-05-20T19:44:46.770Z,18.20
2023-05-20T19:47:14.197Z,19.10
2023-05-20T19:49:41.806Z,18.88
2023-05-20T19:52:09.076Z,16.50
2023-05-20T19:54:36.752Z,16.27
2023-05-20T19:57:04.285Z,15.80
2023-05-20T19:59:32.907Z,14.90
2023-05-20T20:02:03.089Z,15.13
2023-05-20T20:04:30.950Z,15.85
2023-05-20T20:06:58.727Z,16.45
2023-05-20T20:09:26.480Z,17.17
2023-05-20T20:11:54.400Z,17.08
2023-05-20T20:14:22.684Z,14.70
2023-05-20T20:16:51.019Z,13.45
2023-05-20T20:19:27.505Z,15.70
2023-05-20T20:21:58.941Z,17.73
2023-05-20T20:24:26.690Z,15.38
2023-05-20T20:26:54.455Z,14.73
2023-05-20T20:29:22.733Z,15.15
2023-05-20T20:31:50.106Z,14.75
2023-05-20T20:34:18.229Z,12.85
2023-05-20T20:36:47.315Z,14.80
2023-05-20T20:39:25.281Z,14.57
2023-05-20T20:41:52.775Z,17.73
2023-05-20T20:44:23.612Z,14.65
2023-05-20T20:46:51.871Z,13.38
2023-05-20T20:49:20.915Z,14.57
2023-05-20T20:51:49.953Z,13.93
2023-05-20T20:54:17.664Z,14.85
2023-05-20T20:56:47.206Z,15.73
2023-05-20T20:59:16.047Z,14.35
2023-05-20T21:01:44.888Z,15.27
2023-05-20T21:04:14.083Z,14.40
2023-05-20T21:06:47.689Z,17.58
2023-05-20T21:09:16.250Z,14.52
2023-05-20T21:11:45.454Z,16.65
2023-05-20T21:14:13.489Z,15.73
2023-05-20T21:16:42.287Z,16.50
2023-05-20T21:19:10.048Z,15.00
2023-05-20T21:21:37.453Z,17.25
2023-05-20T21:24:05.555Z,20.25
2023-05-20T21:26:32.936Z,15.90
2023-05-20T21:29:00.579Z,16.75
2023-05-20T21:31:28.067Z,13.88
2023-05-20T21:33:55.919Z,16.88
2023-05-20T21:36:23.278Z,15.77
2023-05-20T21:38:50.944Z,13.10
2023-05-20T21:41:18.336Z,13.50
2023-05-20T21:43:46.094Z,14.73
2023-05-20T21:46:13.720Z,16.33
2023-05-20T21:48:41.443Z,14.38
2023-05-20T21:51:08.707Z,15.15
2023-05-20T21:53:36.301Z,17.83
2023-05-20T21:56:03.820Z,15.90
2023-05-20T21:58:31.600Z,12.77
2023-05-20T22:00:58.976Z,16.15
2023-05-20T22:03:27.219Z,13.88
2023-05-20T22:05:55.517Z,12.45
2023-05-20T22:08:23.116Z,15.02
2023-05-20T22:10:50.744Z,14.18
2023-05-20T22:13:20.719Z,16.33
2023-05-20T22:15:48.157Z,15.60
2023-05-20T22:18:15.837Z,16.30
2023-05-20T22:20:43.442Z,15.10
2023-05-20T22:23:11.230Z,14.15
2023-05-20T22:25:38.573Z,15.70
2023-05-20T22:28:06.214Z,15.30
2023-05-20T22:30:33.538Z,15.40
2023-05-20T22:33:01.537Z,13.43
2023-05-20T22:35:28.960Z,15.23
2023-05-20T22:37:57.411Z,12.93
2023-05-20T22:40:24.720Z,14.80
2023-05-20T22:42:53.052Z,13.68
2023-05-20T22:45:20.480Z,14.85
2023-05-20T22:47:48.042Z,14.82
2023-05-20T22:50:15.469Z,15.70
2023-05-20T22:52:43.175Z,15.13
2023-05-20T22:55:11.797Z,16.48
2023-05-20T22:57:39.345Z,14.07
2023-05-20T23:00:08.081Z,13.60
2023-05-20T23:02:35.719Z,17.05
2023-05-20T23:05:04.249Z,15.98
2023-05-20T23:07:32.118Z,18.38
2023-05-20T23:09:59.459Z,15.20
2023-05-20T23:12:27.094Z,16.85
2023-05-20T23:14:54.439Z,16.45
2023-05-20T23:17:22.122Z,17.38
2023-05-20T23:19:49.387Z,16.05
2023-05-20T23:22:17.438Z,17.13
2023-05-20T23:24:45.054Z,15.73
2023-05-20T23:27:12.593Z,18.98
2023-05-20T23:29:40.474Z,21.90
2023-05-20T23:32:08.323Z,17.98
2023-05-20T23:34:35.930Z,19.38
2023-05-20T23:37:03.643Z,18.48
2023-05-20T23:39:30.914Z,17.25
2023-05-20T23:41:58.555Z,19.58
2023-05-20T23:44:25.808Z,18.27
2023-05-20T23:46:53.818Z,18.95
2023-05-20T23:49:24.523Z,17.75
2023-05-20T23:51:52.965Z,19.00
2023-05-20T23:54:20.431Z,16.40
2023-05-20T23:56:48.018Z,18.08
2023-05-20T23:59:15.776Z,17.92
